sensor_id;sensor_type;location;lat;lon;timestamp;temperature;humidity
9810;DHT22;4944;52.514;13.192;2023-03-02T00:00:38;2.80;99.90
9810;DHT22;4944;52.514;13.192;2023-03-02T00:03:06;2.70;99.90
9810;DHT22;4944;52.514;13.192;2023-03-02T00:05:33;2.70;99.90
9810;DHT22;4944;52.514;13.192;2023-03-02T00:08:03;2.80;99.90
9810;DHT22;4944;52.514;13.192;2023-03-02T00:10:30;2.80;99.90
9810;DHT22;4944;52.514;13.192;2023-03-02T00:12:58;2.80;99.90
9810;DHT22;4944;52.514;13.192;2023-03-02T00:15:25;2.70;99.90
9810;DHT22;4944;52.514;13.192;2023-03-02T00:17:52;2.70;99.90
9810;DHT22;4944;52.514;13.192;2023-03-02T00:20:19;2.70;99.90
9810;DHT22;4944;52.514;13.192;2023-03-02T00:22:47;2.70;99.90
9810;DHT22;4944;52.514;13.192;2023-03-02T00:25:16;2.60;99.90
9810;DHT22;4944;52.514;13.192;2023-03-02T00:27:43;2.60;99.90
9810;DHT22;4944;52.514;13.192;2023-03-02T00:30:14;2.60;99.90
9810;DHT22;4944;52.514;13.192;2023-03-02T00:32:41;2.60;99.90
9810;DHT22;4944;52.514;13.192;2023-03-02T00:35:09;2.50;99.90
9810;DHT22;4944;52.514;13.192;2023-03-02T00:37:36;2.50;99.90
9810;DHT22;4944;52.514;13.192;2023-03-02T00:40:04;2.50;99.90
9810;DHT22;4944;52.514;13.192;2023-03-02T00:42:35;2.50;99.90
9810;DHT22;4944;52.514;13.192;2023-03-02T00:45:03;2.40;99.90
9810;DHT22;4944;52.514;13.192;2023-03-02T00:47:32;2.40;99.90
9810;DHT22;4944;52.514;13.192;2023-03-02T00:49:59;2.40;99.90
9810;DHT22;4944;52.514;13.192;2023-03-02T00:52:28;2.40;99.90
9810;DHT22;4944;52.514;13.192;2023-03-02T00:54:54;2.40;99.90
9810;DHT22;4944;52.514;13.192;2023-03-02T00:57:21;2.40;99.90
9810;DHT22;4944;52.514;13.192;2023-03-02T00:59:49;2.30;99.90
9810;DHT22;4944;52.514;13.192;2023-03-02T01:02:16;2.40;99.90
9810;DHT22;4944;52.514;13.192;2023-03-02T01:04:46;2.40;99.90
9810;DHT22;4944;52.514;13.192;2023-03-02T01:07:15;2.30;99.90
9810;DHT22;4944;52.514;13.192;2023-03-02T01:09:43;2.30;99.90
9810;DHT22;4944;52.514;13.192;2023-03-02T01:12:11;2.30;99.90
9810;DHT22;4944;52.514;13.192;2023-03-02T01:14:39;2.30;99.90
9810;DHT22;4944;52.514;13.192;2023-03-02T01:17:09;2.30;99.90
9810;DHT22;4944;52.514;13.192;2023-03-02T01:19:38;2.30;99.90
9810;DHT22;4944;52.514;13.192;2023-03-02T01:22:05;2.20;99.90
9810;DHT22;4944;52.514;13.192;2023-03-02T01:24:32;2.30;99.90
9810;DHT22;4944;52.514;13.192;2023-03-02T01:26:59;2.30;99.90
9810;DHT22;4944;52.514;13.192;2023-03-02T01:29:26;2.30;99.90
9810;DHT22;4944;52.514;13.192;2023-03-02T01:31:53;2.30;99.90
9810;DHT22;4944;52.514;13.192;2023-03-02T01:34:21;2.30;99.90
9810;DHT22;4944;52.514;13.192;2023-03-02T01:36:48;2.30;99.90
9810;DHT22;4944;52.514;13.192;2023-03-02T01:39:16;2.20;99.90
9810;DHT22;4944;52.514;13.192;2023-03-02T01:41:47;2.20;99.90
9810;DHT22;4944;52.514;13.192;2023-03-02T01:44:43;2.20;99.90
9810;DHT22;4944;52.514;13.192;2023-03-02T01:47:16;2.20;99.90
9810;DHT22;4944;52.514;13.192;2023-03-02T01:49:48;2.20;99.90
9810;DHT22;4944;52.514;13.192;2023-03-02T01:52:15;2.20;99.90
9810;DHT22;4944;52.514;13.192;2023-03-02T01:54:43;2.00;99.90
9810;DHT22;4944;52.514;13.192;2023-03-02T01:57:17;2.00;99.90
9810;DHT22;4944;52.514;13.192;2023-03-02T01:59:45;1.90;99.90
9810;DHT22;4944;52.514;13.192;2023-03-02T02:02:12;1.90;99.90
9810;DHT22;4944;52.514;13.192;2023-03-02T02:04:41;1.90;99.90
9810;DHT22;4944;52.514;13.192;2023-03-02T02:07:12;1.90;99.90
9810;DHT22;4944;52.514;13.192;2023-03-02T02:09:42;1.90;99.90
9810;DHT22;4944;52.514;13.192;2023-03-02T02:12:14;1.90;99.90
9810;DHT22;4944;52.514;13.192;2023-03-02T02:14:42;1.90;99.90
9810;DHT22;4944;52.514;13.192;2023-03-02T02:17:10;1.90;99.90
9810;DHT22;4944;52.514;13.192;2023-03-02T02:19:50;2.00;99.90
9810;DHT22;4944;52.514;13.192;2023-03-02T02:22:35;1.90;99.90
9810;DHT22;4944;52.514;13.192;2023-03-02T02:25:11;2.00;99.90
9810;DHT22;4944;52.514;13.192;2023-03-02T02:27:45;1.90;99.90
9810;DHT22;4944;52.514;13.192;2023-03-02T02:30:14;2.00;99.90
9810;DHT22;4944;52.514;13.192;2023-03-02T02:32:54;2.00;99.90
9810;DHT22;4944;52.514;13.192;2023-03-02T02:36:01;2.00;99.90
9810;DHT22;4944;52.514;13.192;2023-03-02T02:48:26;1.70;99.90
9810;DHT22;4944;52.514;13.192;2023-03-02T03:04:13;1.60;99.90
9810;DHT22;4944;52.514;13.192;2023-03-02T03:06:49;1.60;99.90
9810;DHT22;4944;52.514;13.192;2023-03-02T03:09:16;1.60;99.90
9810;DHT22;4944;52.514;13.192;2023-03-02T03:11:46;1.60;99.90
9810;DHT22;4944;52.514;13.192;2023-03-02T03:14:16;1.60;99.90
9810;DHT22;4944;52.514;13.192;2023-03-02T03:16:47;1.50;99.90
9810;DHT22;4944;52.514;13.192;2023-03-02T03:26:02;1.60;99.90
9810;DHT22;4944;52.514;13.192;2023-03-02T03:28:29;1.60;99.90
9810;DHT22;4944;52.514;13.192;2023-03-02T03:30:56;1.60;99.90
9810;DHT22;4944;52.514;13.192;2023-03-02T03:36:45;1.50;99.90
9810;DHT22;4944;52.514;13.192;2023-03-02T03:42:38;1.30;99.90
9810;DHT22;4944;52.514;13.192;2023-03-02T03:45:06;1.30;99.90
9810;DHT22;4944;52.514;13.192;2023-03-02T03:47:34;1.30;99.90
9810;DHT22;4944;52.514;13.192;2023-03-02T03:50:10;1.30;99.90
9810;DHT22;4944;52.514;13.192;2023-03-02T03:52:37;1.30;99.90
9810;DHT22;4944;52.514;13.192;2023-03-02T03:55:05;1.40;99.90
9810;DHT22;4944;52.514;13.192;2023-03-02T03:57:32;1.40;99.90
9810;DHT22;4944;52.514;13.192;2023-03-02T04:00:00;1.40;99.90
9810;DHT22;4944;52.514;13.192;2023-03-02T04:02:30;1.30;99.90
9810;DHT22;4944;52.514;13.192;2023-03-02T04:04:57;1.30;99.90
9810;DHT22;4944;52.514;13.192;2023-03-02T04:07:30;1.30;99.90
9810;DHT22;4944;52.514;13.192;2023-03-02T04:09:57;1.30;99.90
9810;DHT22;4944;52.514;13.192;2023-03-02T04:12:28;1.30;99.90
9810;DHT22;4944;52.514;13.192;2023-03-02T04:14:55;1.30;99.90
9810;DHT22;4944;52.514;13.192;2023-03-02T04:17:23;1.30;99.90
9810;DHT22;4944;52.514;13.192;2023-03-02T04:19:51;1.20;99.90
9810;DHT22;4944;52.514;13.192;2023-03-02T04:22:18;1.20;99.90
9810;DHT22;4944;52.514;13.192;2023-03-02T04:24:46;1.30;99.90
9810;DHT22;4944;52.514;13.192;2023-03-02T04:27:13;1.20;99.90
9810;DHT22;4944;52.514;13.192;2023-03-02T04:29:40;1.20;99.90
9810;DHT22;4944;52.514;13.192;2023-03-02T04:32:08;1.20;99.90
9810;DHT22;4944;52.514;13.192;2023-03-02T04:34:36;1.10;99.90
9810;DHT22;4944;52.514;13.192;2023-03-02T04:37:03;1.10;99.90
9810;DHT22;4944;52.514;13.192;2023-03-02T04:39:30;1.10;99.90
9810;DHT22;4944;52.514;13.192;2023-03-02T04:41:57;1.10;99.90
9810;DHT22;4944;52.514;13.192;2023-03-02T04:44:24;1.10;99.90
9810;DHT22;4944;52.514;13.192;2023-03-02T04:46:51;1.10;99.90
9810;DHT22;4944;52.514;13.192;2023-03-02T04:49:19;1.00;99.90
9810;DHT22;4944;52.514;13.192;2023-03-02T04:51:48;1.00;99.90
9810;DHT22;4944;52.514;13.192;2023-03-02T04:54:17;1.00;99.90
9810;DHT22;4944;52.514;13.192;2023-03-02T04:56:44;1.00;99.90
9810;DHT22;4944;52.514;13.192;2023-03-02T04:59:13;1.00;99.90
9810;DHT22;4944;52.514;13.192;2023-03-02T05:01:39;1.10;99.90
9810;DHT22;4944;52.514;13.192;2023-03-02T05:04:06;1.10;99.90
9810;DHT22;4944;52.514;13.192;2023-03-02T05:06:33;1.10;99.90
9810;DHT22;4944;52.514;13.192;2023-03-02T05:09:02;1.10;99.90
9810;DHT22;4944;52.514;13.192;2023-03-02T05:11:29;1.10;99.90
9810;DHT22;4944;52.514;13.192;2023-03-02T05:13:58;1.10;99.90
9810;DHT22;4944;52.514;13.192;2023-03-02T05:16:27;1.10;99.90
9810;DHT22;4944;52.514;13.192;2023-03-02T05:18:56;1.10;99.90
9810;DHT22;4944;52.514;13.192;2023-03-02T05:21:23;1.10;99.90
9810;DHT22;4944;52.514;13.192;2023-03-02T05:23:54;1.10;99.90
9810;DHT22;4944;52.514;13.192;2023-03-02T05:26:23;1.00;99.90
9810;DHT22;4944;52.514;13.192;2023-03-02T05:28:50;1.00;99.90
9810;DHT22;4944;52.514;13.192;2023-03-02T05:31:21;1.10;99.90
9810;DHT22;4944;52.514;13.192;2023-03-02T05:33:48;1.00;99.90
9810;DHT22;4944;52.514;13.192;2023-03-02T05:36:15;1.10;99.90
9810;DHT22;4944;52.514;13.192;2023-03-02T05:38:42;1.00;99.90
9810;DHT22;4944;52.514;13.192;2023-03-02T05:41:09;1.00;99.90
9810;DHT22;4944;52.514;13.192;2023-03-02T05:43:37;1.00;99.90
9810;DHT22;4944;52.514;13.192;2023-03-02T05:46:04;1.00;99.90
9810;DHT22;4944;52.514;13.192;2023-03-02T05:48:31;1.00;99.90
9810;DHT22;4944;52.514;13.192;2023-03-02T05:50:58;1.00;99.90
9810;DHT22;4944;52.514;13.192;2023-03-02T05:53:25;1.00;99.90
9810;DHT22;4944;52.514;13.192;2023-03-02T05:55:52;1.00;99.90
9810;DHT22;4944;52.514;13.192;2023-03-02T05:58:19;1.00;99.90
9810;DHT22;4944;52.514;13.192;2023-03-02T06:00:48;1.00;99.90
9810;DHT22;4944;52.514;13.192;2023-03-02T06:03:15;1.00;99.90
9810;DHT22;4944;52.514;13.192;2023-03-02T06:05:42;1.00;99.90
9810;DHT22;4944;52.514;13.192;2023-03-02T06:08:09;1.00;99.90
9810;DHT22;4944;52.514;13.192;2023-03-02T06:10:37;1.00;99.90
9810;DHT22;4944;52.514;13.192;2023-03-02T06:13:03;1.00;99.90
9810;DHT22;4944;52.514;13.192;2023-03-02T06:15:30;1.10;99.90
9810;DHT22;4944;52.514;13.192;2023-03-02T06:17:59;1.00;99.90
9810;DHT22;4944;52.514;13.192;2023-03-02T06:20:26;1.10;99.90
9810;DHT22;4944;52.514;13.192;2023-03-02T06:22:52;1.20;99.90
9810;DHT22;4944;52.514;13.192;2023-03-02T06:25:21;1.20;99.90
9810;DHT22;4944;52.514;13.192;2023-03-02T06:27:48;1.30;99.90
9810;DHT22;4944;52.514;13.192;2023-03-02T06:30:17;1.30;99.90
9810;DHT22;4944;52.514;13.192;2023-03-02T06:32:45;1.40;99.90
9810;DHT22;4944;52.514;13.192;2023-03-02T06:35:13;1.30;99.90
9810;DHT22;4944;52.514;13.192;2023-03-02T06:37:41;1.30;99.90
9810;DHT22;4944;52.514;13.192;2023-03-02T06:40:09;1.20;99.90
9810;DHT22;4944;52.514;13.192;2023-03-02T06:42:38;1.20;99.90
9810;DHT22;4944;52.514;13.192;2023-03-02T06:45:07;1.10;99.90
9810;DHT22;4944;52.514;13.192;2023-03-02T06:47:34;1.10;99.90
9810;DHT22;4944;52.514;13.192;2023-03-02T06:50:02;1.10;99.90
9810;DHT22;4944;52.514;13.192;2023-03-02T06:52:30;1.10;99.90
9810;DHT22;4944;52.514;13.192;2023-03-02T06:54:57;1.10;99.90
9810;DHT22;4944;52.514;13.192;2023-03-02T06:57:24;1.10;99.90
9810;DHT22;4944;52.514;13.192;2023-03-02T06:59:58;1.10;99.90
9810;DHT22;4944;52.514;13.192;2023-03-02T07:02:25;1.10;99.90
9810;DHT22;4944;52.514;13.192;2023-03-02T07:04:52;1.10;99.90
9810;DHT22;4944;52.514;13.192;2023-03-02T07:07:19;1.20;99.90
9810;DHT22;4944;52.514;13.192;2023-03-02T07:09:47;1.10;99.90
9810;DHT22;4944;52.514;13.192;2023-03-02T07:12:14;1.20;99.90
9810;DHT22;4944;52.514;13.192;2023-03-02T07:14:41;1.10;99.90
9810;DHT22;4944;52.514;13.192;2023-03-02T07:17:08;1.20;99.90
9810;DHT22;4944;52.514;13.192;2023-03-02T07:19:35;1.10;99.90
9810;DHT22;4944;52.514;13.192;2023-03-02T07:22:03;1.10;99.90
9810;DHT22;4944;52.514;13.192;2023-03-02T07:24:30;1.10;99.90
9810;DHT22;4944;52.514;13.192;2023-03-02T07:26:59;1.10;99.90
9810;DHT22;4944;52.514;13.192;2023-03-02T07:29:26;1.10;99.90
9810;DHT22;4944;52.514;13.192;2023-03-02T07:31:53;1.10;99.90
9810;DHT22;4944;52.514;13.192;2023-03-02T07:34:22;1.20;99.90
9810;DHT22;4944;52.514;13.192;2023-03-02T07:36:49;1.20;99.90
9810;DHT22;4944;52.514;13.192;2023-03-02T07:39:16;1.20;99.90
9810;DHT22;4944;52.514;13.192;2023-03-02T07:41:43;1.30;99.90
9810;DHT22;4944;52.514;13.192;2023-03-02T07:44:11;1.30;99.90
9810;DHT22;4944;52.514;13.192;2023-03-02T07:46:38;1.30;99.90
9810;DHT22;4944;52.514;13.192;2023-03-02T07:49:05;1.30;99.90
9810;DHT22;4944;52.514;13.192;2023-03-02T07:51:32;1.30;99.90
9810;DHT22;4944;52.514;13.192;2023-03-02T07:53:59;1.30;99.90
9810;DHT22;4944;52.514;13.192;2023-03-02T07:56:27;1.30;99.90
9810;DHT22;4944;52.514;13.192;2023-03-02T07:58:54;1.30;99.90
9810;DHT22;4944;52.514;13.192;2023-03-02T08:01:22;1.30;99.90
9810;DHT22;4944;52.514;13.192;2023-03-02T08:03:49;1.40;99.90
9810;DHT22;4944;52.514;13.192;2023-03-02T08:06:17;1.20;99.90
9810;DHT22;4944;52.514;13.192;2023-03-02T08:08:44;1.20;99.90
9810;DHT22;4944;52.514;13.192;2023-03-02T08:11:13;1.20;99.90
9810;DHT22;4944;52.514;13.192;2023-03-02T08:13:41;1.20;99.90
9810;DHT22;4944;52.514;13.192;2023-03-02T08:16:10;1.30;99.90
9810;DHT22;4944;52.514;13.192;2023-03-02T08:18:38;1.30;99.90
9810;DHT22;4944;52.514;13.192;2023-03-02T08:21:11;1.30;99.90
9810;DHT22;4944;52.514;13.192;2023-03-02T08:23:38;1.30;99.90
9810;DHT22;4944;52.514;13.192;2023-03-02T08:26:05;1.40;99.90
9810;DHT22;4944;52.514;13.192;2023-03-02T08:28:32;1.40;99.90
9810;DHT22;4944;52.514;13.192;2023-03-02T08:31:00;1.50;99.90
9810;DHT22;4944;52.514;13.192;2023-03-02T08:33:28;1.50;99.90
9810;DHT22;4944;52.514;13.192;2023-03-02T08:35:58;1.60;99.90
9810;DHT22;4944;52.514;13.192;2023-03-02T08:38:26;1.60;99.90
9810;DHT22;4944;52.514;13.192;2023-03-02T08:40:53;1.70;99.90
9810;DHT22;4944;52.514;13.192;2023-03-02T08:43:22;1.70;99.90
9810;DHT22;4944;52.514;13.192;2023-03-02T08:45:50;1.70;99.90
9810;DHT22;4944;52.514;13.192;2023-03-02T08:48:18;1.80;99.90
9810;DHT22;4944;52.514;13.192;2023-03-02T08:50:53;1.80;99.90
9810;DHT22;4944;52.514;13.192;2023-03-02T08:53:22;1.80;99.90
9810;DHT22;4944;52.514;13.192;2023-03-02T08:55:49;1.80;99.90
9810;DHT22;4944;52.514;13.192;2023-03-02T08:58:16;1.90;99.90
9810;DHT22;4944;52.514;13.192;2023-03-02T09:00:43;1.90;99.90
9810;DHT22;4944;52.514;13.192;2023-03-02T09:03:10;2.00;99.90
9810;DHT22;4944;52.514;13.192;2023-03-02T09:05:37;2.00;99.90
9810;DHT22;4944;52.514;13.192;2023-03-02T09:08:05;2.00;99.90
9810;DHT22;4944;52.514;13.192;2023-03-02T09:10:33;2.10;99.90
9810;DHT22;4944;52.514;13.192;2023-03-02T09:13:01;2.10;99.90
9810;DHT22;4944;52.514;13.192;2023-03-02T09:15:28;2.10;99.90
9810;DHT22;4944;52.514;13.192;2023-03-02T09:17:55;2.10;99.90
9810;DHT22;4944;52.514;13.192;2023-03-02T09:20:22;2.10;99.90
9810;DHT22;4944;52.514;13.192;2023-03-02T09:22:49;2.20;99.90
9810;DHT22;4944;52.514;13.192;2023-03-02T09:25:16;2.20;99.90
9810;DHT22;4944;52.514;13.192;2023-03-02T09:27:45;2.20;99.90
9810;DHT22;4944;52.514;13.192;2023-03-02T09:30:13;2.20;99.90
9810;DHT22;4944;52.514;13.192;2023-03-02T09:32:41;2.20;99.90
9810;DHT22;4944;52.514;13.192;2023-03-02T09:35:08;2.30;99.90
9810;DHT22;4944;52.514;13.192;2023-03-02T09:37:35;2.30;99.90
9810;DHT22;4944;52.514;13.192;2023-03-02T09:40:05;2.30;99.90
9810;DHT22;4944;52.514;13.192;2023-03-02T09:42:55;2.40;99.90
9810;DHT22;4944;52.514;13.192;2023-03-02T09:48:18;2.50;99.90
9810;DHT22;4944;52.514;13.192;2023-03-02T09:50:54;2.50;99.90
9810;DHT22;4944;52.514;13.192;2023-03-02T09:53:34;2.60;99.90
9810;DHT22;4944;52.514;13.192;2023-03-02T09:56:07;2.60;99.90
9810;DHT22;4944;52.514;13.192;2023-03-02T09:58:41;2.60;99.90
9810;DHT22;4944;52.514;13.192;2023-03-02T10:01:14;2.50;99.90
9810;DHT22;4944;52.514;13.192;2023-03-02T10:03:47;2.60;99.90
9810;DHT22;4944;52.514;13.192;2023-03-02T10:06:15;2.60;99.90
9810;DHT22;4944;52.514;13.192;2023-03-02T10:08:42;2.70;99.90
9810;DHT22;4944;52.514;13.192;2023-03-02T10:11:13;2.70;99.90
9810;DHT22;4944;52.514;13.192;2023-03-02T10:13:46;2.70;99.90
9810;DHT22;4944;52.514;13.192;2023-03-02T10:16:25;2.80;99.90
9810;DHT22;4944;52.514;13.192;2023-03-02T10:19:02;2.80;99.90
9810;DHT22;4944;52.514;13.192;2023-03-02T10:21:35;2.70;99.90
9810;DHT22;4944;52.514;13.192;2023-03-02T10:24:11;2.80;99.90
9810;DHT22;4944;52.514;13.192;2023-03-02T10:26:41;2.90;99.90
9810;DHT22;4944;52.514;13.192;2023-03-02T10:29:32;2.90;99.90
9810;DHT22;4944;52.514;13.192;2023-03-02T10:32:06;2.90;99.90
9810;DHT22;4944;52.514;13.192;2023-03-02T10:34:38;3.00;99.90
9810;DHT22;4944;52.514;13.192;2023-03-02T10:37:11;3.00;99.90
9810;DHT22;4944;52.514;13.192;2023-03-02T10:39:39;3.00;99.90
9810;DHT22;4944;52.514;13.192;2023-03-02T10:42:11;3.10;99.90
9810;DHT22;4944;52.514;13.192;2023-03-02T10:44:45;3.20;99.90
9810;DHT22;4944;52.514;13.192;2023-03-02T10:47:19;3.30;99.90
9810;DHT22;4944;52.514;13.192;2023-03-02T10:49:47;3.30;99.90
9810;DHT22;4944;52.514;13.192;2023-03-02T10:52:16;3.50;99.90
9810;DHT22;4944;52.514;13.192;2023-03-02T10:54:43;3.60;99.90
9810;DHT22;4944;52.514;13.192;2023-03-02T10:57:27;3.70;99.90
9810;DHT22;4944;52.514;13.192;2023-03-02T11:00:00;3.70;99.90
9810;DHT22;4944;52.514;13.192;2023-03-02T11:02:28;3.80;99.90
9810;DHT22;4944;52.514;13.192;2023-03-02T11:04:57;3.80;99.90
9810;DHT22;4944;52.514;13.192;2023-03-02T11:07:26;3.90;99.90
9810;DHT22;4944;52.514;13.192;2023-03-02T11:09:58;4.00;99.90
9810;DHT22;4944;52.514;13.192;2023-03-02T11:12:27;4.10;99.90
9810;DHT22;4944;52.514;13.192;2023-03-02T11:15:15;4.10;99.90
9810;DHT22;4944;52.514;13.192;2023-03-02T11:17:45;4.20;99.90
9810;DHT22;4944;52.514;13.192;2023-03-02T11:20:15;4.20;99.90
9810;DHT22;4944;52.514;13.192;2023-03-02T11:22:48;4.10;99.90
9810;DHT22;4944;52.514;13.192;2023-03-02T11:25:22;4.20;99.90
9810;DHT22;4944;52.514;13.192;2023-03-02T11:27:56;4.30;99.90
9810;DHT22;4944;52.514;13.192;2023-03-02T11:30:26;4.30;99.90
9810;DHT22;4944;52.514;13.192;2023-03-02T11:32:58;4.50;99.90
9810;DHT22;4944;52.514;13.192;2023-03-02T11:35:31;4.70;99.90
9810;DHT22;4944;52.514;13.192;2023-03-02T11:38:03;4.80;99.90
9810;DHT22;4944;52.514;13.192;2023-03-02T11:40:40;5.10;99.90
9810;DHT22;4944;52.514;13.192;2023-03-02T11:43:11;5.30;99.90
9810;DHT22;4944;52.514;13.192;2023-03-02T11:45:43;5.50;99.90
9810;DHT22;4944;52.514;13.192;2023-03-02T11:48:17;5.70;99.90
9810;DHT22;4944;52.514;13.192;2023-03-02T11:50:52;5.80;99.90
9810;DHT22;4944;52.514;13.192;2023-03-02T11:53:20;6.00;99.90
9810;DHT22;4944;52.514;13.192;2023-03-02T11:55:49;6.20;99.90
9810;DHT22;4944;52.514;13.192;2023-03-02T11:58:17;6.40;99.90
9810;DHT22;4944;52.514;13.192;2023-03-02T12:00:47;6.60;99.90
9810;DHT22;4944;52.514;13.192;2023-03-02T12:03:20;6.80;99.90
9810;DHT22;4944;52.514;13.192;2023-03-02T12:06:00;6.90;99.90
9810;DHT22;4944;52.514;13.192;2023-03-02T12:08:33;7.00;99.90
9810;DHT22;4944;52.514;13.192;2023-03-02T12:11:02;7.00;99.90
9810;DHT22;4944;52.514;13.192;2023-03-02T12:13:31;7.20;99.90
9810;DHT22;4944;52.514;13.192;2023-03-02T12:15:59;7.30;99.90
9810;DHT22;4944;52.514;13.192;2023-03-02T12:18:29;7.50;99.90
9810;DHT22;4944;52.514;13.192;2023-03-02T12:21:04;7.50;99.90
9810;DHT22;4944;52.514;13.192;2023-03-02T12:23:35;7.70;99.90
9810;DHT22;4944;52.514;13.192;2023-03-02T12:26:07;7.70;99.90
9810;DHT22;4944;52.514;13.192;2023-03-02T12:28:36;7.70;99.90
9810;DHT22;4944;52.514;13.192;2023-03-02T12:31:08;7.90;99.90
9810;DHT22;4944;52.514;13.192;2023-03-02T12:33:42;8.10;99.90
9810;DHT22;4944;52.514;13.192;2023-03-02T12:36:14;8.10;99.90
9810;DHT22;4944;52.514;13.192;2023-03-02T12:38:44;8.20;99.90
9810;DHT22;4944;52.514;13.192;2023-03-02T12:41:28;8.40;99.90
9810;DHT22;4944;52.514;13.192;2023-03-02T12:44:12;8.40;99.90
9810;DHT22;4944;52.514;13.192;2023-03-02T12:46:45;8.50;99.90
9810;DHT22;4944;52.514;13.192;2023-03-02T12:49:20;8.60;99.90
9810;DHT22;4944;52.514;13.192;2023-03-02T12:51:53;8.80;99.90
9810;DHT22;4944;52.514;13.192;2023-03-02T12:54:22;8.90;99.90
9810;DHT22;4944;52.514;13.192;2023-03-02T12:57:00;8.90;99.90
9810;DHT22;4944;52.514;13.192;2023-03-02T12:59:27;8.90;99.90
9810;DHT22;4944;52.514;13.192;2023-03-02T13:02:08;9.10;99.90
9810;DHT22;4944;52.514;13.192;2023-03-02T13:04:38;9.20;99.90
9810;DHT22;4944;52.514;13.192;2023-03-02T13:07:05;9.30;99.90
9810;DHT22;4944;52.514;13.192;2023-03-02T13:09:39;9.20;99.90
9810;DHT22;4944;52.514;13.192;2023-03-02T13:12:11;9.10;99.90
9810;DHT22;4944;52.514;13.192;2023-03-02T13:14:40;9.10;99.90
9810;DHT22;4944;52.514;13.192;2023-03-02T13:17:20;9.00;99.90
9810;DHT22;4944;52.514;13.192;2023-03-02T13:19:48;8.90;99.90
9810;DHT22;4944;52.514;13.192;2023-03-02T13:22:15;8.70;99.90
9810;DHT22;4944;52.514;13.192;2023-03-02T13:24:49;8.70;99.90
9810;DHT22;4944;52.514;13.192;2023-03-02T13:27:18;8.60;99.90
9810;DHT22;4944;52.514;13.192;2023-03-02T13:29:45;8.50;99.90
9810;DHT22;4944;52.514;13.192;2023-03-02T13:32:19;8.60;99.90
9810;DHT22;4944;52.514;13.192;2023-03-02T13:34:48;8.60;99.90
9810;DHT22;4944;52.514;13.192;2023-03-02T13:37:22;8.70;99.90
9810;DHT22;4944;52.514;13.192;2023-03-02T13:39:55;8.90;99.90
9810;DHT22;4944;52.514;13.192;2023-03-02T13:42:25;8.90;99.90
9810;DHT22;4944;52.514;13.192;2023-03-02T13:44:52;9.00;99.90
9810;DHT22;4944;52.514;13.192;2023-03-02T13:47:23;9.00;99.90
9810;DHT22;4944;52.514;13.192;2023-03-02T13:49:50;9.10;99.90
9810;DHT22;4944;52.514;13.192;2023-03-02T13:52:21;9.10;99.90
9810;DHT22;4944;52.514;13.192;2023-03-02T13:54:50;8.90;99.90
9810;DHT22;4944;52.514;13.192;2023-03-02T13:57:21;8.80;99.90
9810;DHT22;4944;52.514;13.192;2023-03-02T13:59:50;8.90;99.90
9810;DHT22;4944;52.514;13.192;2023-03-02T14:02:23;8.80;99.90
9810;DHT22;4944;52.514;13.192;2023-03-02T14:04:50;8.90;99.90
9810;DHT22;4944;52.514;13.192;2023-03-02T14:07:18;8.90;99.90
9810;DHT22;4944;52.514;13.192;2023-03-02T14:09:45;8.90;99.90
9810;DHT22;4944;52.514;13.192;2023-03-02T14:12:20;9.00;99.90
9810;DHT22;4944;52.514;13.192;2023-03-02T14:14:48;9.00;99.90
9810;DHT22;4944;52.514;13.192;2023-03-02T14:17:22;9.00;99.90
9810;DHT22;4944;52.514;13.192;2023-03-02T14:19:51;9.10;99.90
9810;DHT22;4944;52.514;13.192;2023-03-02T14:22:20;9.00;99.90
9810;DHT22;4944;52.514;13.192;2023-03-02T14:24:47;9.10;99.90
9810;DHT22;4944;52.514;13.192;2023-03-02T14:27:15;9.20;99.90
9810;DHT22;4944;52.514;13.192;2023-03-02T14:29:44;9.30;99.90
9810;DHT22;4944;52.514;13.192;2023-03-02T14:32:13;9.30;99.90
9810;DHT22;4944;52.514;13.192;2023-03-02T14:34:41;9.30;99.90
9810;DHT22;4944;52.514;13.192;2023-03-02T14:37:11;9.30;99.90
9810;DHT22;4944;52.514;13.192;2023-03-02T14:39:39;9.20;99.90
9810;DHT22;4944;52.514;13.192;2023-03-02T14:42:11;9.00;99.90
9810;DHT22;4944;52.514;13.192;2023-03-02T14:44:39;8.90;99.90
9810;DHT22;4944;52.514;13.192;2023-03-02T14:47:06;8.90;99.90
9810;DHT22;4944;52.514;13.192;2023-03-02T14:49:34;8.80;99.90
9810;DHT22;4944;52.514;13.192;2023-03-02T14:52:05;8.80;99.90
9810;DHT22;4944;52.514;13.192;2023-03-02T14:54:40;8.80;99.90
9810;DHT22;4944;52.514;13.192;2023-03-02T14:57:15;8.80;99.90
9810;DHT22;4944;52.514;13.192;2023-03-02T14:59:42;8.60;99.90
9810;DHT22;4944;52.514;13.192;2023-03-02T15:02:09;8.60;99.90
9810;DHT22;4944;52.514;13.192;2023-03-02T15:04:37;8.60;99.90
9810;DHT22;4944;52.514;13.192;2023-03-02T15:07:04;8.70;99.90
9810;DHT22;4944;52.514;13.192;2023-03-02T15:09:31;8.70;99.90
9810;DHT22;4944;52.514;13.192;2023-03-02T15:11:59;8.60;99.90
9810;DHT22;4944;52.514;13.192;2023-03-02T15:14:26;8.40;99.90
9810;DHT22;4944;52.514;13.192;2023-03-02T15:16:52;8.20;99.90
9810;DHT22;4944;52.514;13.192;2023-03-02T15:19:19;8.20;99.90
9810;DHT22;4944;52.514;13.192;2023-03-02T15:21:46;8.00;99.90
9810;DHT22;4944;52.514;13.192;2023-03-02T15:24:13;7.80;99.90
9810;DHT22;4944;52.514;13.192;2023-03-02T15:26:40;7.50;99.90
9810;DHT22;4944;52.514;13.192;2023-03-02T15:29:08;7.40;99.90
9810;DHT22;4944;52.514;13.192;2023-03-02T15:31:35;7.30;99.90
9810;DHT22;4944;52.514;13.192;2023-03-02T15:34:02;7.10;99.90
9810;DHT22;4944;52.514;13.192;2023-03-02T15:36:29;6.90;99.90
9810;DHT22;4944;52.514;13.192;2023-03-02T15:38:56;6.80;99.90
9810;DHT22;4944;52.514;13.192;2023-03-02T15:41:23;6.70;99.90
9810;DHT22;4944;52.514;13.192;2023-03-02T15:43:51;6.50;99.90
9810;DHT22;4944;52.514;13.192;2023-03-02T15:46:20;6.40;99.90
9810;DHT22;4944;52.514;13.192;2023-03-02T15:48:48;6.40;99.90
9810;DHT22;4944;52.514;13.192;2023-03-02T15:51:16;6.20;99.90
9810;DHT22;4944;52.514;13.192;2023-03-02T15:53:43;6.20;99.90
9810;DHT22;4944;52.514;13.192;2023-03-02T15:56:13;6.10;99.90
9810;DHT22;4944;52.514;13.192;2023-03-02T15:58:45;6.10;99.90
9810;DHT22;4944;52.514;13.192;2023-03-02T16:01:13;6.00;99.90
9810;DHT22;4944;52.514;13.192;2023-03-02T16:03:42;5.90;99.90
9810;DHT22;4944;52.514;13.192;2023-03-02T16:06:10;5.90;99.90
9810;DHT22;4944;52.514;13.192;2023-03-02T16:08:37;5.90;99.90
9810;DHT22;4944;52.514;13.192;2023-03-02T16:11:06;5.80;99.90
9810;DHT22;4944;52.514;13.192;2023-03-02T16:13:33;5.70;99.90
9810;DHT22;4944;52.514;13.192;2023-03-02T16:16:00;5.70;99.90
9810;DHT22;4944;52.514;13.192;2023-03-02T16:18:27;5.70;99.90
9810;DHT22;4944;52.514;13.192;2023-03-02T16:20:56;5.60;99.90
9810;DHT22;4944;52.514;13.192;2023-03-02T16:23:23;5.50;99.90
9810;DHT22;4944;52.514;13.192;2023-03-02T16:25:49;5.40;99.90
9810;DHT22;4944;52.514;13.192;2023-03-02T16:28:17;5.20;99.90
9810;DHT22;4944;52.514;13.192;2023-03-02T16:30:45;5.20;99.90
9810;DHT22;4944;52.514;13.192;2023-03-02T16:33:15;5.00;99.90
9810;DHT22;4944;52.514;13.192;2023-03-02T16:35:43;5.00;99.90
9810;DHT22;4944;52.514;13.192;2023-03-02T16:38:11;4.90;99.90
9810;DHT22;4944;52.514;13.192;2023-03-02T16:40:39;4.80;99.90
9810;DHT22;4944;52.514;13.192;2023-03-02T16:43:06;4.80;99.90
9810;DHT22;4944;52.514;13.192;2023-03-02T16:45:35;4.80;99.90
9810;DHT22;4944;52.514;13.192;2023-03-02T16:48:03;4.80;99.90
9810;DHT22;4944;52.514;13.192;2023-03-02T16:50:30;4.70;99.90
9810;DHT22;4944;52.514;13.192;2023-03-02T16:52:57;4.70;99.90
9810;DHT22;4944;52.514;13.192;2023-03-02T16:55:26;4.70;99.90